sensor_id;sensor_type;location;lat;lon;timestamp;temperature;humidity
6666;DHT22;3369;49.906;8.598;2023-06-22T00:02:15;22.20;99.90
6666;DHT22;3369;49.906;8.598;2023-06-22T00:04:42;22.20;99.90
6666;DHT22;3369;49.906;8.598;2023-06-22T00:07:08;22.20;99.90
6666;DHT22;3369;49.906;8.598;2023-06-22T00:09:34;22.20;99.90
6666;DHT22;3369;49.906;8.598;2023-06-22T00:11:59;22.20;99.90
6666;DHT22;3369;49.906;8.598;2023-06-22T00:14:25;22.30;99.90
6666;DHT22;3369;49.906;8.598;2023-06-22T00:16:51;22.30;99.90
6666;DHT22;3369;49.906;8.598;2023-06-22T00:19:22;22.40;99.90
6666;DHT22;3369;49.906;8.598;2023-06-22T00:21:48;22.40;99.90
6666;DHT22;3369;49.906;8.598;2023-06-22T00:24:21;22.40;99.90
6666;DHT22;3369;49.906;8.598;2023-06-22T00:26:48;22.30;99.90
6666;DHT22;3369;49.906;8.598;2023-06-22T00:29:14;22.30;99.90
6666;DHT22;3369;49.906;8.598;2023-06-22T00:31:40;22.30;99.90
6666;DHT22;3369;49.906;8.598;2023-06-22T00:34:05;22.20;99.90
6666;DHT22;3369;49.906;8.598;2023-06-22T00:36:32;22.20;99.90
6666;DHT22;3369;49.906;8.598;2023-06-22T00:38:57;22.10;99.90
6666;DHT22;3369;49.906;8.598;2023-06-22T00:41:23;22.10;99.90
6666;DHT22;3369;49.906;8.598;2023-06-22T00:43:49;22.10;99.90
6666;DHT22;3369;49.906;8.598;2023-06-22T00:46:14;22.10;99.90
6666;DHT22;3369;49.906;8.598;2023-06-22T00:48:40;22.20;99.90
6666;DHT22;3369;49.906;8.598;2023-06-22T00:51:09;22.20;99.90
6666;DHT22;3369;49.906;8.598;2023-06-22T00:53:35;22.20;99.90
6666;DHT22;3369;49.906;8.598;2023-06-22T00:56:03;22.20;99.90
6666;DHT22;3369;49.906;8.598;2023-06-22T00:58:29;22.10;99.90
6666;DHT22;3369;49.906;8.598;2023-06-22T01:00:55;22.20;99.90
6666;DHT22;3369;49.906;8.598;2023-06-22T01:03:21;22.10;99.90
6666;DHT22;3369;49.906;8.598;2023-06-22T01:05:47;22.10;99.90
6666;DHT22;3369;49.906;8.598;2023-06-22T01:08:26;22.10;99.90
6666;DHT22;3369;49.906;8.598;2023-06-22T01:30:32;21.50;99.90
6666;DHT22;3369;49.906;8.598;2023-06-22T01:33:00;21.30;99.90
6666;DHT22;3369;49.906;8.598;2023-06-22T01:35:26;21.10;99.90
6666;DHT22;3369;49.906;8.598;2023-06-22T01:37:52;20.90;99.90
6666;DHT22;3369;49.906;8.598;2023-06-22T01:40:19;20.80;99.90
6666;DHT22;3369;49.906;8.598;2023-06-22T01:42:46;20.70;99.90
6666;DHT22;3369;49.906;8.598;2023-06-22T01:45:12;20.70;99.90
6666;DHT22;3369;49.906;8.598;2023-06-22T01:47:39;20.70;99.90
6666;DHT22;3369;49.906;8.598;2023-06-22T01:50:05;20.70;99.90
6666;DHT22;3369;49.906;8.598;2023-06-22T01:52:31;20.70;99.90
6666;DHT22;3369;49.906;8.598;2023-06-22T01:54:59;20.70;99.90
6666;DHT22;3369;49.906;8.598;2023-06-22T01:57:26;20.80;99.90
6666;DHT22;3369;49.906;8.598;2023-06-22T01:59:53;20.80;99.90
6666;DHT22;3369;49.906;8.598;2023-06-22T02:02:23;20.90;99.90
6666;DHT22;3369;49.906;8.598;2023-06-22T02:05:00;20.90;99.90
6666;DHT22;3369;49.906;8.598;2023-06-22T02:07:31;20.90;99.90
6666;DHT22;3369;49.906;8.598;2023-06-22T02:09:59;20.90;99.90
6666;DHT22;3369;49.906;8.598;2023-06-22T02:12:26;20.80;99.90
6666;DHT22;3369;49.906;8.598;2023-06-22T02:14:53;20.90;99.90
6666;DHT22;3369;49.906;8.598;2023-06-22T02:17:20;20.90;99.90
6666;DHT22;3369;49.906;8.598;2023-06-22T02:19:46;20.80;99.90
6666;DHT22;3369;49.906;8.598;2023-06-22T02:22:11;20.80;99.90
6666;DHT22;3369;49.906;8.598;2023-06-22T02:24:40;20.80;99.90
6666;DHT22;3369;49.906;8.598;2023-06-22T02:27:05;20.70;99.90
6666;DHT22;3369;49.906;8.598;2023-06-22T02:29:32;20.70;99.90
6666;DHT22;3369;49.906;8.598;2023-06-22T02:31:58;20.70;99.90
6666;DHT22;3369;49.906;8.598;2023-06-22T02:34:24;20.70;99.90
6666;DHT22;3369;49.906;8.598;2023-06-22T02:36:50;20.70;99.90
6666;DHT22;3369;49.906;8.598;2023-06-22T02:39:20;20.70;99.90
6666;DHT22;3369;49.906;8.598;2023-06-22T02:41:48;20.60;99.90
6666;DHT22;3369;49.906;8.598;2023-06-22T02:44:13;20.60;99.90
6666;DHT22;3369;49.906;8.598;2023-06-22T02:46:39;20.60;99.90
6666;DHT22;3369;49.906;8.598;2023-06-22T02:49:05;20.60;99.90
6666;DHT22;3369;49.906;8.598;2023-06-22T02:51:33;20.60;99.90
6666;DHT22;3369;49.906;8.598;2023-06-22T02:54:00;20.50;99.90
6666;DHT22;3369;49.906;8.598;2023-06-22T02:56:26;20.50;99.90
6666;DHT22;3369;49.906;8.598;2023-06-22T02:58:51;20.40;99.90
6666;DHT22;3369;49.906;8.598;2023-06-22T03:01:17;20.40;99.90
6666;DHT22;3369;49.906;8.598;2023-06-22T03:03:48;20.40;99.90
6666;DHT22;3369;49.906;8.598;2023-06-22T03:06:14;20.40;99.90
6666;DHT22;3369;49.906;8.598;2023-06-22T03:08:39;20.40;99.90
6666;DHT22;3369;49.906;8.598;2023-06-22T03:11:07;20.40;99.90
6666;DHT22;3369;49.906;8.598;2023-06-22T03:13:33;20.40;99.90
6666;DHT22;3369;49.906;8.598;2023-06-22T03:15:58;20.30;99.90
6666;DHT22;3369;49.906;8.598;2023-06-22T03:18:24;20.30;99.90
6666;DHT22;3369;49.906;8.598;2023-06-22T03:20:50;20.30;99.90
6666;DHT22;3369;49.906;8.598;2023-06-22T03:23:15;20.20;99.90
6666;DHT22;3369;49.906;8.598;2023-06-22T03:25:42;20.20;99.90
6666;DHT22;3369;49.906;8.598;2023-06-22T03:28:10;20.20;99.90
6666;DHT22;3369;49.906;8.598;2023-06-22T03:30:36;20.20;99.90
6666;DHT22;3369;49.906;8.598;2023-06-22T03:33:01;20.20;99.90
6666;DHT22;3369;49.906;8.598;2023-06-22T03:35:27;20.20;99.90
6666;DHT22;3369;49.906;8.598;2023-06-22T03:37:53;20.20;99.90
6666;DHT22;3369;49.906;8.598;2023-06-22T03:40:19;20.20;99.90
6666;DHT22;3369;49.906;8.598;2023-06-22T03:42:45;20.20;99.90
6666;DHT22;3369;49.906;8.598;2023-06-22T03:45:10;20.20;99.90
6666;DHT22;3369;49.906;8.598;2023-06-22T03:47:36;20.20;99.90
6666;DHT22;3369;49.906;8.598;2023-06-22T03:50:02;20.20;99.90
6666;DHT22;3369;49.906;8.598;2023-06-22T03:52:29;20.20;99.90
6666;DHT22;3369;49.906;8.598;2023-06-22T03:54:55;20.30;99.90
6666;DHT22;3369;49.906;8.598;2023-06-22T03:57:21;20.20;99.90
6666;DHT22;3369;49.906;8.598;2023-06-22T03:59:46;20.20;99.90
6666;DHT22;3369;49.906;8.598;2023-06-22T04:02:12;20.30;99.90
6666;DHT22;3369;49.906;8.598;2023-06-22T04:04:37;20.30;99.90
6666;DHT22;3369;49.906;8.598;2023-06-22T04:07:05;20.30;99.90
6666;DHT22;3369;49.906;8.598;2023-06-22T04:09:30;20.30;99.90
6666;DHT22;3369;49.906;8.598;2023-06-22T04:11:56;20.30;99.90
6666;DHT22;3369;49.906;8.598;2023-06-22T04:14:22;20.20;99.90
6666;DHT22;3369;49.906;8.598;2023-06-22T04:16:47;20.30;99.90
6666;DHT22;3369;49.906;8.598;2023-06-22T04:19:13;20.30;99.90
6666;DHT22;3369;49.906;8.598;2023-06-22T04:21:43;20.30;99.90
6666;DHT22;3369;49.906;8.598;2023-06-22T04:24:10;20.30;99.90
6666;DHT22;3369;49.906;8.598;2023-06-22T04:26:35;20.30;99.90
6666;DHT22;3369;49.906;8.598;2023-06-22T04:29:05;20.30;99.90
6666;DHT22;3369;49.906;8.598;2023-06-22T04:31:34;20.30;99.90
6666;DHT22;3369;49.906;8.598;2023-06-22T04:34:04;20.30;99.90
6666;DHT22;3369;49.906;8.598;2023-06-22T04:36:41;20.30;99.90
6666;DHT22;3369;49.906;8.598;2023-06-22T04:39:10;20.40;99.90
6666;DHT22;3369;49.906;8.598;2023-06-22T04:41:38;20.40;99.90
6666;DHT22;3369;49.906;8.598;2023-06-22T04:44:17;20.40;99.90
6666;DHT22;3369;49.906;8.598;2023-06-22T04:47:00;20.40;99.90
6666;DHT22;3369;49.906;8.598;2023-06-22T04:49:28;20.40;99.90
6666;DHT22;3369;49.906;8.598;2023-06-22T04:52:05;20.50;99.90
6666;DHT22;3369;49.906;8.598;2023-06-22T04:54:31;20.50;99.90
6666;DHT22;3369;49.906;8.598;2023-06-22T04:57:01;20.50;99.90
6666;DHT22;3369;49.906;8.598;2023-06-22T04:59:28;20.50;99.90
6666;DHT22;3369;49.906;8.598;2023-06-22T05:01:59;20.50;99.90
6666;DHT22;3369;49.906;8.598;2023-06-22T05:04:26;20.60;99.90
6666;DHT22;3369;49.906;8.598;2023-06-22T05:06:54;20.60;99.90
6666;DHT22;3369;49.906;8.598;2023-06-22T05:09:20;20.60;99.90
6666;DHT22;3369;49.906;8.598;2023-06-22T05:11:46;20.60;99.90
6666;DHT22;3369;49.906;8.598;2023-06-22T05:14:12;20.60;99.90
6666;DHT22;3369;49.906;8.598;2023-06-22T05:16:38;20.70;99.90
6666;DHT22;3369;49.906;8.598;2023-06-22T05:19:04;20.70;99.90
6666;DHT22;3369;49.906;8.598;2023-06-22T05:21:30;20.70;99.90
6666;DHT22;3369;49.906;8.598;2023-06-22T05:23:57;20.80;99.90
6666;DHT22;3369;49.906;8.598;2023-06-22T05:26:26;20.80;99.90
6666;DHT22;3369;49.906;8.598;2023-06-22T05:28:52;20.80;99.90
6666;DHT22;3369;49.906;8.598;2023-06-22T05:31:18;20.90;99.90
6666;DHT22;3369;49.906;8.598;2023-06-22T05:33:48;20.90;99.90
6666;DHT22;3369;49.906;8.598;2023-06-22T05:36:15;21.00;99.90
6666;DHT22;3369;49.906;8.598;2023-06-22T05:38:41;21.00;99.90
6666;DHT22;3369;49.906;8.598;2023-06-22T05:41:08;21.00;99.90
6666;DHT22;3369;49.906;8.598;2023-06-22T05:43:33;21.10;99.90
6666;DHT22;3369;49.906;8.598;2023-06-22T05:46:01;21.10;99.90
6666;DHT22;3369;49.906;8.598;2023-06-22T05:48:26;21.20;99.90
6666;DHT22;3369;49.906;8.598;2023-06-22T05:50:52;21.30;99.90
6666;DHT22;3369;49.906;8.598;2023-06-22T05:53:18;21.30;99.90
6666;DHT22;3369;49.906;8.598;2023-06-22T05:55:44;21.40;99.90
6666;DHT22;3369;49.906;8.598;2023-06-22T05:58:10;21.50;99.90
6666;DHT22;3369;49.906;8.598;2023-06-22T06:00:36;21.70;99.90
6666;DHT22;3369;49.906;8.598;2023-06-22T06:03:02;22.00;99.90
6666;DHT22;3369;49.906;8.598;2023-06-22T06:05:29;22.30;99.90
6666;DHT22;3369;49.906;8.598;2023-06-22T06:07:55;22.70;99.90
6666;DHT22;3369;49.906;8.598;2023-06-22T06:10:21;22.90;99.90
6666;DHT22;3369;49.906;8.598;2023-06-22T06:12:46;23.20;99.90
6666;DHT22;3369;49.906;8.598;2023-06-22T06:15:12;23.40;99.90
6666;DHT22;3369;49.906;8.598;2023-06-22T06:17:47;23.60;99.90
6666;DHT22;3369;49.906;8.598;2023-06-22T06:20:13;23.80;99.90
6666;DHT22;3369;49.906;8.598;2023-06-22T06:22:39;24.00;99.90
6666;DHT22;3369;49.906;8.598;2023-06-22T06:25:05;24.20;99.90
6666;DHT22;3369;49.906;8.598;2023-06-22T06:27:31;24.30;99.90
6666;DHT22;3369;49.906;8.598;2023-06-22T06:29:56;24.50;99.90
6666;DHT22;3369;49.906;8.598;2023-06-22T06:32:22;24.60;99.90
6666;DHT22;3369;49.906;8.598;2023-06-22T06:34:48;24.80;99.90
6666;DHT22;3369;49.906;8.598;2023-06-22T06:37:13;24.90;99.90
6666;DHT22;3369;49.906;8.598;2023-06-22T06:39:39;25.10;99.90
6666;DHT22;3369;49.906;8.598;2023-06-22T06:42:05;25.20;99.90
6666;DHT22;3369;49.906;8.598;2023-06-22T06:44:31;25.30;99.90
6666;DHT22;3369;49.906;8.598;2023-06-22T06:46:56;25.50;99.90
6666;DHT22;3369;49.906;8.598;2023-06-22T06:49:22;25.60;99.90
6666;DHT22;3369;49.906;8.598;2023-06-22T07:13:42;25.70;99.90
6666;DHT22;3369;49.906;8.598;2023-06-22T07:16:07;25.70;99.90
6666;DHT22;3369;49.906;8.598;2023-06-22T07:18:33;25.70;99.90
6666;DHT22;3369;49.906;8.598;2023-06-22T07:20:58;25.80;99.90
6666;DHT22;3369;49.906;8.598;2023-06-22T07:23:24;25.80;99.90
6666;DHT22;3369;49.906;8.598;2023-06-22T07:25:50;25.80;99.90
6666;DHT22;3369;49.906;8.598;2023-06-22T07:28:15;25.80;99.90
6666;DHT22;3369;49.906;8.598;2023-06-22T07:30:41;25.90;99.90
6666;DHT22;3369;49.906;8.598;2023-06-22T07:33:07;26.00;99.90
6666;DHT22;3369;49.906;8.598;2023-06-22T07:35:34;26.10;99.90
6666;DHT22;3369;49.906;8.598;2023-06-22T07:37:59;26.10;99.90
6666;DHT22;3369;49.906;8.598;2023-06-22T07:40:25;26.20;99.90
6666;DHT22;3369;49.906;8.598;2023-06-22T07:42:51;26.30;99.90
6666;DHT22;3369;49.906;8.598;2023-06-22T07:45:20;26.40;99.90
6666;DHT22;3369;49.906;8.598;2023-06-22T07:47:46;26.40;99.90
6666;DHT22;3369;49.906;8.598;2023-06-22T07:50:11;26.50;99.90
6666;DHT22;3369;49.906;8.598;2023-06-22T07:52:37;26.60;99.90
6666;DHT22;3369;49.906;8.598;2023-06-22T07:55:03;26.70;99.90
6666;DHT22;3369;49.906;8.598;2023-06-22T07:57:29;26.70;99.90
6666;DHT22;3369;49.906;8.598;2023-06-22T08:00:03;26.80;99.90
6666;DHT22;3369;49.906;8.598;2023-06-22T08:02:33;26.90;99.90
6666;DHT22;3369;49.906;8.598;2023-06-22T08:04:59;27.10;99.90
6666;DHT22;3369;49.906;8.598;2023-06-22T08:07:24;27.20;99.90
6666;DHT22;3369;49.906;8.598;2023-06-22T08:09:50;27.30;99.90
6666;DHT22;3369;49.906;8.598;2023-06-22T08:12:16;27.40;99.90
6666;DHT22;3369;49.906;8.598;2023-06-22T08:14:42;27.50;99.90
6666;DHT22;3369;49.906;8.598;2023-06-22T08:17:11;27.60;99.90
6666;DHT22;3369;49.906;8.598;2023-06-22T08:19:37;27.70;99.90
6666;DHT22;3369;49.906;8.598;2023-06-22T08:22:03;27.80;99.90
6666;DHT22;3369;49.906;8.598;2023-06-22T08:24:29;27.80;99.90
6666;DHT22;3369;49.906;8.598;2023-06-22T08:26:55;27.90;99.90
6666;DHT22;3369;49.906;8.598;2023-06-22T08:29:21;28.00;99.90
6666;DHT22;3369;49.906;8.598;2023-06-22T08:31:47;28.00;99.90
6666;DHT22;3369;49.906;8.598;2023-06-22T08:34:13;28.10;99.90
6666;DHT22;3369;49.906;8.598;2023-06-22T08:36:38;28.20;99.90
6666;DHT22;3369;49.906;8.598;2023-06-22T08:39:07;28.30;99.90
6666;DHT22;3369;49.906;8.598;2023-06-22T08:41:33;28.50;99.90
6666;DHT22;3369;49.906;8.598;2023-06-22T08:43:59;28.50;99.90
6666;DHT22;3369;49.906;8.598;2023-06-22T08:46:25;28.60;99.90
6666;DHT22;3369;49.906;8.598;2023-06-22T08:48:57;28.60;99.90
6666;DHT22;3369;49.906;8.598;2023-06-22T08:51:23;28.70;99.90
6666;DHT22;3369;49.906;8.598;2023-06-22T08:53:49;28.70;99.90
6666;DHT22;3369;49.906;8.598;2023-06-22T08:56:15;28.70;99.90
6666;DHT22;3369;49.906;8.598;2023-06-22T08:58:40;28.70;99.90
6666;DHT22;3369;49.906;8.598;2023-06-22T09:01:06;28.70;99.90
6666;DHT22;3369;49.906;8.598;2023-06-22T09:03:32;28.70;99.90
6666;DHT22;3369;49.906;8.598;2023-06-22T09:05:58;28.80;99.90
6666;DHT22;3369;49.906;8.598;2023-06-22T09:08:24;28.90;99.70
6666;DHT22;3369;49.906;8.598;2023-06-22T09:10:50;28.80;99.50
6666;DHT22;3369;49.906;8.598;2023-06-22T09:13:15;28.80;99.80
6666;DHT22;3369;49.906;8.598;2023-06-22T09:15:41;28.90;99.50
6666;DHT22;3369;49.906;8.598;2023-06-22T09:18:10;29.00;99.70
6666;DHT22;3369;49.906;8.598;2023-06-22T09:20:36;29.10;99.60
6666;DHT22;3369;49.906;8.598;2023-06-22T09:23:02;29.10;99.30
6666;DHT22;3369;49.906;8.598;2023-06-22T09:25:28;29.30;99.50
6666;DHT22;3369;49.906;8.598;2023-06-22T09:27:53;29.40;99.50
6666;DHT22;3369;49.906;8.598;2023-06-22T09:30:19;29.50;99.10
6666;DHT22;3369;49.906;8.598;2023-06-22T09:32:45;29.60;98.80
6666;DHT22;3369;49.906;8.598;2023-06-22T09:35:11;29.60;99.00
6666;DHT22;3369;49.906;8.598;2023-06-22T09:37:38;29.70;98.70
6666;DHT22;3369;49.906;8.598;2023-06-22T09:40:05;29.50;98.50
6666;DHT22;3369;49.906;8.598;2023-06-22T09:42:34;29.40;98.70
6666;DHT22;3369;49.906;8.598;2023-06-22T09:45:00;29.40;98.50
6666;DHT22;3369;49.906;8.598;2023-06-22T09:47:27;29.40;98.60
6666;DHT22;3369;49.906;8.598;2023-06-22T09:49:53;29.50;97.70
6666;DHT22;3369;49.906;8.598;2023-06-22T09:52:21;29.50;97.50
6666;DHT22;3369;49.906;8.598;2023-06-22T09:54:47;29.60;97.10
6666;DHT22;3369;49.906;8.598;2023-06-22T09:57:12;29.70;96.90
6666;DHT22;3369;49.906;8.598;2023-06-22T09:59:38;29.80;96.80
6666;DHT22;3369;49.906;8.598;2023-06-22T10:02:06;29.80;96.70
6666;DHT22;3369;49.906;8.598;2023-06-22T10:04:32;29.80;96.80
6666;DHT22;3369;49.906;8.598;2023-06-22T10:06:58;29.90;96.40
6666;DHT22;3369;49.906;8.598;2023-06-22T10:09:23;29.90;96.10
6666;DHT22;3369;49.906;8.598;2023-06-22T10:11:49;29.90;95.90
6666;DHT22;3369;49.906;8.598;2023-06-22T10:14:15;29.80;95.30
6666;DHT22;3369;49.906;8.598;2023-06-22T10:16:40;29.70;95.00
6666;DHT22;3369;49.906;8.598;2023-06-22T10:19:06;29.80;94.60
6666;DHT22;3369;49.906;8.598;2023-06-22T10:21:32;29.80;94.70
6666;DHT22;3369;49.906;8.598;2023-06-22T10:23:58;29.90;94.90
6666;DHT22;3369;49.906;8.598;2023-06-22T10:26:24;30.00;94.90
6666;DHT22;3369;49.906;8.598;2023-06-22T10:28:51;30.10;94.80
6666;DHT22;3369;49.906;8.598;2023-06-22T10:31:17;30.20;94.70
6666;DHT22;3369;49.906;8.598;2023-06-22T10:33:42;30.30;94.10
6666;DHT22;3369;49.906;8.598;2023-06-22T10:36:10;30.30;93.50
6666;DHT22;3369;49.906;8.598;2023-06-22T10:38:36;30.30;93.60
6666;DHT22;3369;49.906;8.598;2023-06-22T10:41:01;30.30;94.20
6666;DHT22;3369;49.906;8.598;2023-06-22T10:43:27;30.40;94.20
6666;DHT22;3369;49.906;8.598;2023-06-22T10:45:53;30.30;94.00
6666;DHT22;3369;49.906;8.598;2023-06-22T10:48:19;30.30;94.40
6666;DHT22;3369;49.906;8.598;2023-06-22T10:50:44;30.40;94.20
6666;DHT22;3369;49.906;8.598;2023-06-22T10:53:10;30.50;94.30
6666;DHT22;3369;49.906;8.598;2023-06-22T10:55:36;30.60;94.30
6666;DHT22;3369;49.906;8.598;2023-06-22T10:58:01;30.70;93.90
6666;DHT22;3369;49.906;8.598;2023-06-22T11:00:27;30.70;93.70
6666;DHT22;3369;49.906;8.598;2023-06-22T11:02:52;30.70;93.40
6666;DHT22;3369;49.906;8.598;2023-06-22T11:05:18;30.70;93.30
6666;DHT22;3369;49.906;8.598;2023-06-22T11:07:44;30.70;93.50
6666;DHT22;3369;49.906;8.598;2023-06-22T11:10:10;30.70;93.30
6666;DHT22;3369;49.906;8.598;2023-06-22T11:12:36;30.80;92.50
6666;DHT22;3369;49.906;8.598;2023-06-22T11:15:02;30.80;92.80
6666;DHT22;3369;49.906;8.598;2023-06-22T11:17:27;31.00;93.10
6666;DHT22;3369;49.906;8.598;2023-06-22T11:19:53;31.00;93.00
6666;DHT22;3369;49.906;8.598;2023-06-22T11:22:19;30.90;92.90
6666;DHT22;3369;49.906;8.598;2023-06-22T11:24:44;30.90;93.00
6666;DHT22;3369;49.906;8.598;2023-06-22T11:27:10;30.90;92.70
6666;DHT22;3369;49.906;8.598;2023-06-22T11:29:35;31.00;93.00
6666;DHT22;3369;49.906;8.598;2023-06-22T11:32:01;31.10;93.00
6666;DHT22;3369;49.906;8.598;2023-06-22T11:34:27;31.20;92.90
6666;DHT22;3369;49.906;8.598;2023-06-22T11:36:53;31.20;92.60
6666;DHT22;3369;49.906;8.598;2023-06-22T11:39:19;31.20;92.40
6666;DHT22;3369;49.906;8.598;2023-06-22T11:41:45;31.10;92.70
6666;DHT22;3369;49.906;8.598;2023-06-22T11:44:11;31.00;92.80
6666;DHT22;3369;49.906;8.598;2023-06-22T11:46:37;31.10;93.00
6666;DHT22;3369;49.906;8.598;2023-06-22T11:49:02;31.00;92.70
6666;DHT22;3369;49.906;8.598;2023-06-22T11:51:28;31.00;92.90
6666;DHT22;3369;49.906;8.598;2023-06-22T11:53:54;31.00;93.20
6666;DHT22;3369;49.906;8.598;2023-06-22T11:56:19;31.00;93.20
6666;DHT22;3369;49.906;8.598;2023-06-22T11:58:45;31.10;92.90
6666;DHT22;3369;49.906;8.598;2023-06-22T12:01:10;31.20;92.90
6666;DHT22;3369;49.906;8.598;2023-06-22T12:03:40;31.10;92.90
6666;DHT22;3369;49.906;8.598;2023-06-22T12:06:06;31.10;92.90
6666;DHT22;3369;49.906;8.598;2023-06-22T12:08:31;31.00;92.80
6666;DHT22;3369;49.906;8.598;2023-06-22T12:10:57;31.20;93.10
6666;DHT22;3369;49.906;8.598;2023-06-22T12:13:23;31.20;93.00
6666;DHT22;3369;49.906;8.598;2023-06-22T12:15:48;31.30;92.00
6666;DHT22;3369;49.906;8.598;2023-06-22T12:18:14;31.20;92.10
6666;DHT22;3369;49.906;8.598;2023-06-22T12:20:40;31.20;91.80
6666;DHT22;3369;49.906;8.598;2023-06-22T12:23:06;31.20;92.20
6666;DHT22;3369;49.906;8.598;2023-06-22T12:25:31;31.20;92.40
6666;DHT22;3369;49.906;8.598;2023-06-22T12:27:57;31.20;92.50
6666;DHT22;3369;49.906;8.598;2023-06-22T12:30:23;31.10;92.40
6666;DHT22;3369;49.906;8.598;2023-06-22T12:32:48;31.10;92.60
6666;DHT22;3369;49.906;8.598;2023-06-22T12:35:15;31.10;91.80
6666;DHT22;3369;49.906;8.598;2023-06-22T12:37:41;31.10;91.20
6666;DHT22;3369;49.906;8.598;2023-06-22T12:40:08;31.10;91.40
6666;DHT22;3369;49.906;8.598;2023-06-22T12:42:34;31.20;91.50
6666;DHT22;3369;49.906;8.598;2023-06-22T12:45:00;31.40;91.60
6666;DHT22;3369;49.906;8.598;2023-06-22T12:47:25;31.50;91.70
6666;DHT22;3369;49.906;8.598;2023-06-22T12:49:51;31.60;91.30
6666;DHT22;3369;49.906;8.598;2023-06-22T12:52:16;31.60;90.90
6666;DHT22;3369;49.906;8.598;2023-06-22T12:54:42;31.60;91.00
6666;DHT22;3369;49.906;8.598;2023-06-22T12:57:08;31.60;91.10
6666;DHT22;3369;49.906;8.598;2023-06-22T12:59:33;31.70;90.80
6666;DHT22;3369;49.906;8.598;2023-06-22T13:01:59;31.80;91.00
6666;DHT22;3369;49.906;8.598;2023-06-22T13:04:25;31.80;91.10
6666;DHT22;3369;49.906;8.598;2023-06-22T13:06:50;31.90;90.50
6666;DHT22;3369;49.906;8.598;2023-06-22T13:30:45;32.30;84.40
6666;DHT22;3369;49.906;8.598;2023-06-22T13:33:15;32.40;86.00
6666;DHT22;3369;49.906;8.598;2023-06-22T13:35:41;32.60;84.20
6666;DHT22;3369;49.906;8.598;2023-06-22T13:38:10;32.70;81.40
6666;DHT22;3369;49.906;8.598;2023-06-22T13:40:37;32.60;81.30
6666;DHT22;3369;49.906;8.598;2023-06-22T13:43:05;32.60;81.50
6666;DHT22;3369;49.906;8.598;2023-06-22T13:45:32;32.50;81.40
6666;DHT22;3369;49.906;8.598;2023-06-22T13:47:58;32.50;82.00
6666;DHT22;3369;49.906;8.598;2023-06-22T13:50:24;32.50;81.80
6666;DHT22;3369;49.906;8.598;2023-06-22T13:52:50;32.70;81.70
6666;DHT22;3369;49.906;8.598;2023-06-22T13:55:15;32.80;80.10
6666;DHT22;3369;49.906;8.598;2023-06-22T13:57:42;32.80;79.80
6666;DHT22;3369;49.906;8.598;2023-06-22T14:00:08;32.80;80.30
6666;DHT22;3369;49.906;8.598;2023-06-22T14:02:34;32.80;80.10
6666;DHT22;3369;49.906;8.598;2023-06-22T14:05:00;32.80;78.80
6666;DHT22;3369;49.906;8.598;2023-06-22T14:07:26;32.80;79.30
6666;DHT22;3369;49.906;8.598;2023-06-22T14:09:51;32.80;79.00
6666;DHT22;3369;49.906;8.598;2023-06-22T14:12:17;32.70;76.90
6666;DHT22;3369;49.906;8.598;2023-06-22T14:14:45;32.70;77.30
6666;DHT22;3369;49.906;8.598;2023-06-22T14:17:11;32.70;77.50
6666;DHT22;3369;49.906;8.598;2023-06-22T14:19:37;32.60;76.40
6666;DHT22;3369;49.906;8.598;2023-06-22T14:22:03;32.50;76.70
6666;DHT22;3369;49.906;8.598;2023-06-22T14:24:29;32.50;76.20
6666;DHT22;3369;49.906;8.598;2023-06-22T14:26:55;32.40;76.40
6666;DHT22;3369;49.906;8.598;2023-06-22T14:29:24;32.30;76.40
6666;DHT22;3369;49.906;8.598;2023-06-22T14:31:50;32.30;76.90
6666;DHT22;3369;49.906;8.598;2023-06-22T14:34:16;32.30;77.80
6666;DHT22;3369;49.906;8.598;2023-06-22T14:36:42;32.30;76.40
6666;DHT22;3369;49.906;8.598;2023-06-22T14:39:09;32.30;76.80
6666;DHT22;3369;49.906;8.598;2023-06-22T14:41:34;32.20;77.10
6666;DHT22;3369;49.906;8.598;2023-06-22T14:44:00;32.20;75.90
6666;DHT22;3369;49.906;8.598;2023-06-22T14:46:26;32.30;75.30
6666;DHT22;3369;49.906;8.598;2023-06-22T14:48:52;32.30;75.30
6666;DHT22;3369;49.906;8.598;2023-06-22T14:51:18;32.30;75.50
6666;DHT22;3369;49.906;8.598;2023-06-22T14:53:45;32.30;76.50
6666;DHT22;3369;49.906;8.598;2023-06-22T14:56:12;32.30;72.60
6666;DHT22;3369;49.906;8.598;2023-06-22T14:58:41;32.30;73.90
6666;DHT22;3369;49.906;8.598;2023-06-22T15:01:10;32.30;73.70
6666;DHT22;3369;49.906;8.598;2023-06-22T15:03:36;32.20;74.20
6666;DHT22;3369;49.906;8.598;2023-06-22T15:06:03;32.20;74.70
6666;DHT22;3369;49.906;8.598;2023-06-22T15:08:29;32.00;75.40
6666;DHT22;3369;49.906;8.598;2023-06-22T15:10:54;31.90;75.80
6666;DHT22;3369;49.906;8.598;2023-06-22T15:13:20;31.80;76.80
6666;DHT22;3369;49.906;8.598;2023-06-22T15:15:47;31.70;79.00
6666;DHT22;3369;49.906;8.598;2023-06-22T15:18:14;31.70;79.50
6666;DHT22;3369;49.906;8.598;2023-06-22T15:20:41;31.70;79.30
6666;DHT22;3369;49.906;8.598;2023-06-22T15:23:07;31.60;79.70
6666;DHT22;3369;49.906;8.598;2023-06-22T15:25:34;31.60;80.10
6666;DHT22;3369;49.906;8.598;2023-06-22T15:28:00;31.60;80.10
6666;DHT22;3369;49.906;8.598;2023-06-22T15:30:25;31.60;79.70
6666;DHT22;3369;49.906;8.598;2023-06-22T15:32:51;31.50;79.40
6666;DHT22;3369;49.906;8.598;2023-06-22T15:35:17;31.50;80.10
6666;DHT22;3369;49.906;8.598;2023-06-22T15:37:44;31.50;80.10
6666;DHT22;3369;49.906;8.598;2023-06-22T15:40:10;31.50;79.90
6666;DHT22;3369;49.906;8.598;2023-06-22T15:42:36;31.40;79.80
6666;DHT22;3369;49.906;8.598;2023-06-22T15:45:02;31.40;79.80
6666;DHT22;3369;49.906;8.598;2023-06-22T15:47:27;31.40;80.30
6666;DHT22;3369;49.906;8.598;2023-06-22T15:49:53;31.30;80.50
6666;DHT22;3369;49.906;8.598;2023-06-22T15:52:19;31.30;80.50
6666;DHT22;3369;49.906;8.598;2023-06-22T15:54:48;31.20;80.80
6666;DHT22;3369;49.906;8.598;2023-06-22T15:57:15;31.10;81.40
6666;DHT22;3369;49.906;8.598;2023-06-22T15:59:41;31.00;81.40
6666;DHT22;3369;49.906;8.598;2023-06-22T16:02:08;30.90;80.40
6666;DHT22;3369;49.906;8.598;2023-06-22T16:04:33;30.80;80.80
6666;DHT22;3369;49.906;8.598;2023-06-22T16:06:59;30.70;80.50
6666;DHT22;3369;49.906;8.598;2023-06-22T16:09:26;30.60;80.80
6666;DHT22;3369;49.906;8.598;2023-06-22T16:11:51;30.50;80.90
6666;DHT22;3369;49.906;8.598;2023-06-22T16:14:17;30.40;81.30
6666;DHT22;3369;49.906;8.598;2023-06-22T16:16:42;30.30;80.70
6666;DHT22;3369;49.906;8.598;2023-06-22T16:19:08;30.10;80.80
6666;DHT22;3369;49.906;8.598;2023-06-22T16:21:34;30.10;81.60
6666;DHT22;3369;49.906;8.598;2023-06-22T16:23:59;29.90;78.00
6666;DHT22;3369;49.906;8.598;2023-06-22T16:26:25;29.50;77.20
6666;DHT22;3369;49.906;8.598;2023-06-22T16:28:50;29.00;77.80
6666;DHT22;3369;49.906;8.598;2023-06-22T16:31:16;28.60;80.70
6666;DHT22;3369;49.906;8.598;2023-06-22T16:33:42;28.20;82.00
6666;DHT22;3369;49.906;8.598;2023-06-22T16:36:15;27.90;82.40
6666;DHT22;3369;49.906;8.598;2023-06-22T16:38:41;27.60;82.70
6666;DHT22;3369;49.906;8.598;2023-06-22T16:41:07;27.30;82.30
6666;DHT22;3369;49.906;8.598;2023-06-22T16:43:37;27.10;82.80
6666;DHT22;3369;49.906;8.598;2023-06-22T16:46:06;26.90;83.60
6666;DHT22;3369;49.906;8.598;2023-06-22T16:48:32;26.80;84.30
6666;DHT22;3369;49.906;8.598;2023-06-22T16:50:58;26.70;84.80
6666;DHT22;3369;49.906;8.598;2023-06-22T16:53:24;26.70;85.60
6666;DHT22;3369;49.906;8.598;2023-06-22T16:55:50;26.60;86.60
6666;DHT22;3369;49.906;8.598;2023-06-22T16:58:17;26.50;87.30
6666;DHT22;3369;49.906;8.598;2023-06-22T17:00:47;26.40;88.00